Time;durP1;ratioP1;P1;durP2;ratioP2;P2;SDS_P1;SDS_P2;PMS_P1;PMS_P2;Temp;Humidity;BMP_temperature;BMP_pressure;BME280_temperature;BME280_humidity;BME280_pressure;Samples;Min_cycle;Max_cycle;Signal;HPM_P1;HPM_P2
2022/12/24 00:02:24;;;;;;;8.05;4.85;;;8.10;99.90;;;;;;5137957;27;20070;-67
2022/12/24 00:04:51;;;;;;;6.25;4.28;;;8.10;99.90;;;;;;5127169;27;20380;-63
2022/12/24 00:07:26;;;;;;;4.97;3.63;;;8.10;99.90;;;;;;5127007;27;20051;-68
2022/12/24 00:09:52;;;;;;;7.57;4.55;;;8.00;99.90;;;;;;5131640;27;20039;-65
2022/12/24 00:12:19;;;;;;;7.70;3.75;;;8.00;99.90;;;;;;5129664;27;20063;-65
2022/12/24 00:14:46;;;;;;;5.38;3.42;;;8.00;99.90;;;;;;5131927;27;20039;-64
2022/12/24 00:17:12;;;;;;;4.75;3.60;;;7.90;99.90;;;;;;5125415;27;20088;-64
2022/12/24 00:19:39;;;;;;;5.35;3.15;;;7.90;99.90;;;;;;5132140;27;20039;-62
2022/12/24 00:22:06;;;;;;;7.40;3.67;;;7.90;99.90;;;;;;5130305;27;20051;-62
2022/12/24 00:24:33;;;;;;;3.90;3.45;;;7.80;99.90;;;;;;5131815;27;20769;-62
2022/12/24 00:27:00;;;;;;;5.07;3.30;;;7.90;99.90;;;;;;5129804;27;20050;-63
2022/12/24 00:29:28;;;;;;;6.90;3.60;;;7.90;99.90;;;;;;5131563;28;20487;-62
2022/12/24 00:31:55;;;;;;;6.07;3.90;;;8.00;99.90;;;;;;5128243;28;20066;-62
2022/12/24 00:34:22;;;;;;;6.25;3.33;;;8.00;99.90;;;;;;5131227;28;20051;-66
2022/12/24 00:36:49;;;;;;;5.45;3.42;;;8.00;99.90;;;;;;5130213;28;20035;-69
2022/12/24 00:39:16;;;;;;;4.93;3.13;;;8.10;99.90;;;;;;5127111;28;20035;-68
2022/12/24 00:41:43;;;;;;;7.53;3.28;;;8.20;99.90;;;;;;5125760;28;20067;-69
2022/12/24 00:44:10;;;;;;;5.53;3.28;;;8.30;99.90;;;;;;5129159;28;20119;-68
2022/12/24 00:46:38;;;;;;;;;;;8.10;99.90;;;;;;5100800;28;20044;-69
2022/12/24 00:49:06;;;;;;;6.90;3.42;;;8.10;99.90;;;;;;5129258;28;19930;-71
2022/12/24 00:51:34;;;;;;;6.43;3.50;;;8.10;99.90;;;;;;5129133;28;20035;-70
2022/12/24 00:54:00;;;;;;;4.95;3.42;;;8.20;99.90;;;;;;5126871;28;20040;-68
2022/12/24 00:56:27;;;;;;;5.22;3.35;;;8.20;99.90;;;;;;5130610;28;20047;-64
2022/12/24 00:58:54;;;;;;;5.55;3.35;;;8.20;99.90;;;;;;5129824;27;20522;-65
2022/12/24 01:01:22;;;;;;;4.80;3.20;;;8.20;99.90;;;;;;5129985;27;20063;-68
2022/12/24 01:03:49;;;;;;;5.45;3.45;;;8.20;99.90;;;;;;5129877;27;20043;-66
2022/12/24 01:06:19;;;;;;;6.47;3.30;;;8.20;99.90;;;;;;5115556;28;20047;-65
2022/12/24 01:08:49;;;;;;;4.25;2.55;;;8.10;99.90;;;;;;5130756;28;20046;-73
2022/12/24 01:11:16;;;;;;;4.38;2.92;;;8.10;99.90;;;;;;5126852;28;20050;-73
2022/12/24 01:13:43;;;;;;;5.97;2.80;;;8.00;99.90;;;;;;5130190;27;20043;-72
2022/12/24 01:16:19;;;;;;;5.00;2.63;;;7.90;99.90;;;;;;5129972;27;20138;-76
2022/12/24 01:18:46;;;;;;;5.60;3.05;;;7.80;99.90;;;;;;5147500;27;20499;-72
2022/12/24 01:21:14;;;;;;;4.72;2.83;;;7.80;99.90;;;;;;5141879;27;20510;-74
2022/12/24 01:23:41;;;;;;;5.57;2.67;;;7.80;99.90;;;;;;5133283;27;20043;-72
2022/12/24 01:26:11;;;;;;;6.05;2.70;;;7.90;99.90;;;;;;5133754;27;20039;-67
2022/12/24 01:28:37;;;;;;;5.18;2.92;;;7.90;99.90;;;;;;5125818;27;20046;-70
2022/12/24 01:31:17;;;;;;;6.38;4.50;;;7.80;99.90;;;;;;5127036;27;20110;-64
2022/12/24 01:33:45;;;;;;;6.97;3.33;;;7.80;99.90;;;;;;5103684;27;20134;-66
2022/12/24 01:36:12;;;;;;;5.10;2.85;;;7.80;99.90;;;;;;5134694;27;20509;-64
2022/12/24 01:38:39;;;;;;;;;;;7.80;99.90;;;;;;5126715;27;20047;-64
2022/12/24 01:43:53;;;;;;;3.17;2.30;;;7.80;99.90;;;;;;5092268;27;20055;-64
2022/12/24 01:46:28;;;;;;;3.78;2.08;;;7.80;99.90;;;;;;5132317;27;20043;-64
2022/12/24 01:48:58;;;;;;;2.50;1.77;;;7.70;99.90;;;;;;5134008;27;20493;-64
2022/12/24 01:51:39;;;;;;;4.18;2.15;;;7.60;99.90;;;;;;5133301;27;20078;-64
2022/12/24 01:54:26;;;;;;;3.88;2.15;;;7.50;99.90;;;;;;5134042;27;20051;-64
2022/12/24 01:57:02;;;;;;;3.65;2.40;;;7.40;99.90;;;;;;5133804;27;20459;-64
2022/12/24 01:59:31;;;;;;;6.05;4.10;;;7.40;99.90;;;;;;5133976;27;20127;-64
2022/12/24 02:01:58;;;;;;;7.07;3.33;;;7.40;99.90;;;;;;5126093;27;20046;-64
2022/12/24 02:04:52;;;;;;;3.65;2.40;;;7.30;99.90;;;;;;5133718;27;20112;-64
2022/12/24 02:07:19;;;;;;;5.57;3.00;;;7.40;99.90;;;;;;5131775;27;20047;-64
2022/12/24 02:09:48;;;;;;;4.40;2.67;;;7.40;99.90;;;;;;5134506;27;20047;-64
2022/12/24 02:12:15;;;;;;;4.93;2.55;;;7.40;99.90;;;;;;5131416;27;20107;-64
2022/12/24 02:14:42;;;;;;;4.85;3.25;;;7.40;99.90;;;;;;5134278;27;20100;-63
2022/12/24 02:17:19;;;;;;;4.25;3.35;;;7.40;99.90;;;;;;5133022;27;20092;-64
2022/12/24 02:20:11;;;;;;;5.70;3.22;;;7.40;99.90;;;;;;5128451;27;20063;-64
2022/12/24 02:23:08;;;;;;;8.15;3.30;;;7.40;99.90;;;;;;5127302;27;20039;-64
2022/12/24 02:25:50;;;;;;;4.80;2.78;;;7.40;99.90;;;;;;5132666;27;20544;-64
2022/12/24 02:28:45;;;;;;;7.05;4.15;;;7.30;99.90;;;;;;5132979;27;20147;-64
2022/12/24 02:31:21;;;;;;;6.78;3.63;;;7.30;99.90;;;;;;5132293;27;20836;-64
2022/12/24 02:34:05;;;;;;;9.07;4.95;;;7.20;99.90;;;;;;5133846;27;20071;-64
2022/12/24 02:36:48;;;;;;;7.88;5.13;;;7.20;99.90;;;;;;5132431;27;20078;-65
2022/12/24 02:39:21;;;;;;;10.10;6.30;;;7.20;99.90;;;;;;5130127;27;20550;-64
2022/12/24 02:42:06;;;;;;;12.02;7.10;;;7.20;99.90;;;;;;5132372;27;20050;-64
2022/12/24 02:44:54;;;;;;;7.78;4.50;;;7.20;99.90;;;;;;5133049;27;20051;-65
2022/12/24 02:47:25;;;;;;;5.05;3.70;;;7.10;99.90;;;;;;5130243;27;20452;-64
2022/12/24 02:49:51;;;;;;;7.35;3.78;;;7.10;99.90;;;;;;5132965;27;20051;-64
2022/12/24 02:52:40;;;;;;;9.15;5.40;;;7.00;99.90;;;;;;5132493;27;20035;-64
2022/12/24 02:55:13;;;;;;;8.68;5.00;;;7.00;99.90;;;;;;5131866;27;20046;-65
2022/12/24 02:57:55;;;;;;;5.63;4.25;;;7.00;99.90;;;;;;5130860;27;20064;-64
2022/12/24 03:00:23;;;;;;;6.22;2.78;;;7.00;99.90;;;;;;5132421;27;20043;-64
2022/12/24 03:03:17;;;;;;;4.22;1.40;;;7.00;99.90;;;;;;5132739;27;20046;-64
2022/12/24 03:05:52;;;;;;;2.75;1.65;;;6.90;99.90;;;;;;5131304;27;20071;-64
2022/12/24 03:08:57;;;;;;;3.50;2.15;;;6.80;99.90;;;;;;5125245;27;20492;-64
2022/12/24 03:11:24;;;;;;;3.78;2.78;;;6.80;99.90;;;;;;5132436;27;20063;-64
2022/12/24 03:13:52;;;;;;;;;;;6.80;99.90;;;;;;5132843;27;20471;-64
2022/12/24 03:16:24;;;;;;;2.72;2.03;;;6.80;99.90;;;;;;5131324;27;20021;-64
2022/12/24 03:18:53;;;;;;;4.90;2.72;;;6.80;99.90;;;;;;5130902;27;20035;-64
2022/12/24 03:21:29;;;;;;;5.80;3.38;;;6.80;99.90;;;;;;5123986;27;20599;-64
2022/12/24 03:23:56;;;;;;;5.82;3.70;;;6.80;99.90;;;;;;5131371;27;20075;-64
2022/12/24 03:26:24;;;;;;;8.30;5.55;;;6.70;99.90;;;;;;5131983;27;20078;-64
2022/12/24 03:28:51;;;;;;;9.90;5.68;;;6.70;99.90;;;;;;5131731;27;20075;-64
2022/12/24 03:31:19;;;;;;;14.40;6.75;;;6.70;99.90;;;;;;5132674;27;20487;-64
2022/12/24 03:33:46;;;;;;;10.35;6.05;;;6.70;99.90;;;;;;5129928;27;20039;-64
2022/12/24 03:36:13;;;;;;;12.80;6.90;;;6.60;99.90;;;;;;5132828;27;20552;-64
2022/12/24 03:38:40;;;;;;;10.75;6.97;;;6.60;99.90;;;;;;5131230;27;20043;-65
2022/12/24 03:41:07;;;;;;;11.43;7.22;;;6.60;99.90;;;;;;5126230;27;20576;-64
2022/12/24 03:43:34;;;;;;;9.60;6.40;;;6.60;99.90;;;;;;5130949;27;20066;-64
2022/12/24 03:46:07;;;;;;;12.38;6.57;;;6.60;99.90;;;;;;5132702;27;20383;-64
2022/12/24 03:48:38;;;;;;;12.15;7.22;;;6.50;99.90;;;;;;5132663;27;20046;-62
2022/12/24 03:51:15;;;;;;;9.77;6.07;;;6.50;99.90;;;;;;5046049;28;20048;-60
2022/12/24 03:53:41;;;;;;;11.50;6.28;;;6.50;99.90;;;;;;5049240;28;20478;-60
2022/12/24 03:56:08;;;;;;;6.50;4.18;;;6.50;99.90;;;;;;5051085;28;20064;-61
2022/12/24 03:58:35;;;;;;;4.70;2.08;;;6.50;99.90;;;;;;5047309;28;20076;-59
2022/12/24 04:01:01;;;;;;;3.90;2.20;;;6.50;99.90;;;;;;5048587;28;20072;-60
2022/12/24 04:03:28;;;;;;;4.25;2.83;;;6.50;99.90;;;;;;5037902;28;20049;-60
2022/12/24 04:06:04;;;;;;;2.80;1.55;;;6.50;99.90;;;;;;5028168;28;20052;-60
2022/12/24 04:08:31;;;;;;;3.72;2.00;;;6.50;99.90;;;;;;5030318;28;20045;-60
2022/12/24 04:10:58;;;;;;;2.67;1.83;;;6.60;99.90;;;;;;5030570;28;20051;-60
2022/12/24 04:13:30;;;;;;;2.83;1.85;;;6.60;99.90;;;;;;5030122;28;20042;-60
2022/12/24 04:16:05;;;;;;;4.78;2.05;;;6.60;99.90;;;;;;5030349;28;20502;-60
2022/12/24 04:18:32;;;;;;;4.22;2.28;;;6.50;99.90;;;;;;5030244;28;20116;-60
2022/12/24 04:20:59;;;;;;;7.57;4.53;;;6.50;99.90;;;;;;5029431;28;20422;-65
2022/12/24 04:23:29;;;;;;;6.85;4.50;;;6.50;99.90;;;;;;5029901;28;20103;-60
2022/12/24 04:25:57;;;;;;;8.52;4.63;;;6.50;99.90;;;;;;5030473;28;20095;-59
2022/12/24 04:28:24;;;;;;;7.95;4.68;;;6.50;99.90;;;;;;5030266;28;20049;-60
2022/12/24 04:30:51;;;;;;;11.43;5.20;;;6.50;99.90;;;;;;5028905;28;20073;-60
2022/12/24 04:33:17;;;;;;;12.68;5.30;;;6.60;99.90;;;;;;5029593;28;20461;-60
2022/12/24 04:35:44;;;;;;;8.93;5.00;;;6.50;99.90;;;;;;5029581;28;20065;-60
2022/12/24 04:38:11;;;;;;;8.82;5.13;;;6.50;99.90;;;;;;5028886;28;20091;-60
2022/12/24 04:40:37;;;;;;;8.43;5.30;;;6.50;99.90;;;;;;5029720;28;20057;-60
2022/12/24 04:43:04;;;;;;;8.20;4.70;;;6.40;99.90;;;;;;5029578;28;20069;-59
2022/12/24 04:45:31;;;;;;;7.03;4.88;;;6.50;99.90;;;;;;5029457;28;20042;-60
2022/12/24 04:47:58;;;;;;;7.93;4.75;;;6.50;99.90;;;;;;5029094;28;20050;-59
2022/12/24 04:50:25;;;;;;;19.30;6.88;;;6.40;99.90;;;;;;5029564;28;20076;-60
2022/12/24 04:52:52;;;;;;;16.52;6.32;;;6.30;99.90;;;;;;5033350;28;20045;-59
2022/12/24 04:55:18;;;;;;;9.73;6.55;;;6.30;99.90;;;;;;5033526;28;20077;-59
2022/12/24 04:57:45;;;;;;;23.05;7.28;;;6.30;99.90;;;;;;5031195;28;20053;-59
2022/12/24 05:00:18;;;;;;;21.65;7.47;;;6.20;99.90;;;;;;5041112;28;20068;-60
2022/12/24 05:02:45;;;;;;;12.20;6.70;;;6.20;99.90;;;;;;5034016;28;20577;-60
2022/12/24 05:05:12;;;;;;;7.25;4.28;;;6.20;99.90;;;;;;5033393;28;20104;-60
2022/12/24 05:07:38;;;;;;;8.27;5.68;;;6.20;99.90;;;;;;5029720;28;20045;-60
2022/12/24 05:10:06;;;;;;;7.10;4.40;;;6.20;99.90;;;;;;5033263;28;20076;-59
2022/12/24 05:12:33;;;;;;;6.30;3.50;;;6.20;99.90;;;;;;5027026;28;20050;-60
2022/12/24 05:14:59;;;;;;;4.70;3.53;;;6.20;99.90;;;;;;5029126;28;20564;-60
2022/12/24 05:17:26;;;;;;;9.50;6.18;;;6.20;99.90;;;;;;5034107;28;20033;-59
2022/12/24 05:19:53;;;;;;;11.60;7.20;;;6.20;99.90;;;;;;5032931;28;20069;-59
2022/12/24 05:27:53;;;;;;;11.13;6.82;;;6.20;99.90;;;;;;5033174;28;20115;-60
2022/12/24 05:30:20;;;;;;;12.43;6.75;;;6.20;99.90;;;;;;5030100;28;20041;-60
2022/12/24 05:32:46;;;;;;;20.00;6.95;;;6.20;99.90;;;;;;5033011;28;20064;-60
2022/12/24 05:35:13;;;;;;;17.00;6.38;;;6.20;99.90;;;;;;5032365;28;20033;-60
2022/12/24 05:37:40;;;;;;;12.35;6.80;;;6.20;99.90;;;;;;5033264;28;20045;-59
2022/12/24 05:40:07;;;;;;;10.85;6.65;;;6.20;99.90;;;;;;5031587;28;20116;-60
2022/12/24 05:42:34;;;;;;;;;;;6.30;99.90;;;;;;5033617;28;20080;-60
2022/12/24 05:45:01;;;;;;;11.13;5.63;;;6.30;99.90;;;;;;5031154;28;19973;-60
2022/12/24 05:47:27;;;;;;;7.88;5.07;;;6.30;99.90;;;;;;5033295;28;20041;-59
2022/12/24 05:49:54;;;;;;;7.68;3.85;;;6.30;99.90;;;;;;5032127;28;20099;-59
2022/12/24 05:52:21;;;;;;;10.57;6.75;;;6.30;99.90;;;;;;5032951;28;20041;-60
2022/12/24 05:54:47;;;;;;;10.50;6.95;;;6.30;99.90;;;;;;5031609;28;20065;-60
2022/12/24 05:57:15;;;;;;;11.07;6.60;;;6.10;99.90;;;;;;5033114;28;20045;-59
2022/12/24 05:59:42;;;;;;;12.55;7.05;;;6.00;99.90;;;;;;5032295;28;20555;-59
2022/12/24 06:02:08;;;;;;;7.72;3.00;;;6.00;99.90;;;;;;5026427;28;20053;-59
2022/12/24 06:04:35;;;;;;;6.70;2.38;;;6.10;99.90;;;;;;5032738;28;20064;-59
2022/12/24 06:07:02;;;;;;;3.67;2.20;;;6.10;99.90;;;;;;5031621;28;20037;-60
2022/12/24 06:09:28;;;;;;;11.68;4.25;;;6.20;99.90;;;;;;5032409;28;20050;-60
2022/12/24 06:11:55;;;;;;;10.52;6.35;;;6.30;99.90;;;;;;5029903;28;20049;-60
2022/12/24 06:14:22;;;;;;;9.85;6.65;;;6.20;99.90;;;;;;5032666;28;20053;-60
2022/12/24 06:16:48;;;;;;;8.23;5.20;;;6.10;99.90;;;;;;5032162;28;20073;-60
2022/12/24 06:19:15;;;;;;;6.03;4.25;;;6.20;99.90;;;;;;5030340;28;20087;-60
2022/12/24 06:21:42;;;;;;;12.80;6.68;;;6.20;99.90;;;;;;5031653;28;20095;-61
2022/12/24 06:24:09;;;;;;;15.48;8.82;;;6.30;99.90;;;;;;5031123;28;20099;-60
2022/12/24 06:26:35;;;;;;;12.25;7.88;;;6.30;99.90;;;;;;5031998;28;20073;-60
2022/12/24 06:29:02;;;;;;;10.32;6.70;;;6.40;99.90;;;;;;5029631;28;20045;-60
2022/12/24 06:31:29;;;;;;;6.20;4.18;;;6.50;99.90;;;;;;5031426;28;20490;-60
2022/12/24 06:33:56;;;;;;;6.07;2.20;;;6.50;99.90;;;;;;5031537;28;20077;-60
2022/12/24 06:36:24;;;;;;;4.57;3.05;;;6.60;99.90;;;;;;5031636;28;20041;-60
2022/12/24 06:38:52;;;;;;;4.38;2.50;;;6.60;99.90;;;;;;5031211;28;20042;-60
2022/12/24 06:41:20;;;;;;;3.25;1.75;;;6.60;99.90;;;;;;5031471;28;20808;-59
2022/12/24 06:43:49;;;;;;;6.18;2.28;;;6.70;99.90;;;;;;5031816;28;20049;-60
2022/12/24 06:46:17;;;;;;;5.05;1.77;;;6.70;99.90;;;;;;5030266;28;20068;-59
2022/12/24 06:48:45;;;;;;;4.88;1.63;;;6.80;99.90;;;;;;5032556;28;20124;-60
2022/12/24 06:51:13;;;;;;;4.30;1.92;;;6.80;99.90;;;;;;5030726;28;20049;-60
2022/12/24 06:53:40;;;;;;;3.95;1.33;;;6.90;99.90;;;;;;5031733;28;20076;-60
2022/12/24 06:56:09;;;;;;;7.47;3.25;;;6.90;99.90;;;;;;5030916;28;20072;-59
2022/12/24 06:58:36;;;;;;;4.90;1.55;;;6.90;99.90;;;;;;5031786;28;20817;-60
2022/12/24 07:01:05;;;;;;;2.85;1.10;;;7.00;99.90;;;;;;5030332;28;20136;-59
2022/12/24 07:03:33;;;;;;;4.18;1.40;;;7.10;99.90;;;;;;5030488;28;20052;-60
2022/12/24 07:06:00;;;;;;;2.90;1.17;;;7.20;99.90;;;;;;5030452;28;20045;-59
2022/12/24 07:08:27;;;;;;;0.93;0.70;;;7.30;99.90;;;;;;5031339;28;20518;-59
2022/12/24 07:10:54;;;;;;;0.82;0.60;;;7.60;99.90;;;;;;5029647;28;20124;-60
2022/12/24 07:13:20;;;;;;;2.60;0.73;;;7.80;99.90;;;;;;5031133;28;20494;-60
2022/12/24 07:15:59;;;;;;;1.75;0.70;;;7.90;99.90;;;;;;5030433;28;20490;-60
2022/12/24 07:18:26;;;;;;;1.17;0.68;;;8.10;99.90;;;;;;5032077;28;20046;-60
2022/12/24 07:20:52;;;;;;;0.57;0.40;;;8.20;99.90;;;;;;5027534;28;20457;-60
2022/12/24 07:23:19;;;;;;;0.47;0.38;;;8.30;99.90;;;;;;5031228;28;20486;-60
2022/12/24 07:25:46;;;;;;;1.83;0.68;;;8.30;99.90;;;;;;5030457;28;20073;-59
2022/12/24 07:28:13;;;;;;;1.90;1.00;;;8.30;99.90;;;;;;5024605;28;20042;-60
2022/12/24 07:30:39;;;;;;;1.80;1.20;;;8.20;99.90;;;;;;5031015;28;20072;-60
2022/12/24 07:33:07;;;;;;;3.70;0.82;;;8.20;99.90;;;;;;5030117;28;20041;-60
2022/12/24 07:35:33;;;;;;;;;;;8.10;99.90;;;;;;5030260;28;20131;-60
2022/12/24 07:38:01;;;;;;;1.65;1.10;;;8.10;99.90;;;;;;5051029;28;19960;-60
2022/12/24 07:40:27;;;;;;;6.05;1.63;;;8.10;99.90;;;;;;5031978;28;20517;-60
2022/12/24 07:42:54;;;;;;;2.28;1.50;;;8.00;99.90;;;;;;5029197;28;20141;-59
2022/12/24 07:45:21;;;;;;;2.42;0.93;;;8.00;99.90;;;;;;5034155;28;20037;-60
2022/12/24 07:47:47;;;;;;;5.80;2.47;;;8.00;99.90;;;;;;5030723;28;20469;-60
2022/12/24 07:50:14;;;;;;;5.78;2.88;;;8.10;99.90;;;;;;5032831;28;20522;-60
2022/12/24 07:52:41;;;;;;;3.55;1.98;;;8.00;99.90;;;;;;5028389;28;20123;-60
2022/12/24 07:55:08;;;;;;;2.80;1.27;;;7.80;99.90;;;;;;5031653;28;20041;-60
2022/12/24 07:57:34;;;;;;;2.17;0.90;;;7.70;99.90;;;;;;5032930;28;20041;-60
2022/12/24 08:00:01;;;;;;;1.58;0.95;;;7.70;99.90;;;;;;5024866;28;20065;-60
2022/12/24 08:02:37;;;;;;;3.13;1.30;;;7.70;99.90;;;;;;5032370;28;20062;-60
2022/12/24 08:05:05;;;;;;;3.97;1.08;;;7.80;99.90;;;;;;5031071;28;20049;-60
2022/12/24 08:07:31;;;;;;;3.22;1.17;;;7.80;99.90;;;;;;5027856;28;20053;-60
2022/12/24 08:09:58;;;;;;;2.45;0.95;;;7.80;99.90;;;;;;5031057;28;20065;-60
2022/12/24 08:12:25;;;;;;;2.75;1.23;;;7.90;99.90;;;;;;5031834;28;20073;-60
2022/12/24 08:14:51;;;;;;;2.50;1.17;;;8.00;99.90;;;;;;5031345;28;20124;-60
2022/12/24 08:17:18;;;;;;;3.30;1.33;;;8.00;99.90;;;;;;5032805;28;20064;-60
2022/12/24 08:19:45;;;;;;;4.40;1.20;;;8.00;99.90;;;;;;5041385;28;20053;-60
2022/12/24 08:22:11;;;;;;;3.35;1.55;;;8.00;99.90;;;;;;5029855;28;20103;-60
2022/12/24 08:24:38;;;;;;;1.77;0.93;;;8.00;99.90;;;;;;5030703;28;20106;-60
2022/12/24 08:27:05;;;;;;;1.77;0.90;;;8.00;99.90;;;;;;5028258;28;20096;-60
2022/12/24 08:29:31;;;;;;;1.38;0.80;;;8.00;99.90;;;;;;5030985;28;20061;-59
2022/12/24 08:31:58;;;;;;;1.95;0.60;;;8.20;99.90;;;;;;5031136;28;20395;-60
2022/12/24 08:34:25;;;;;;;5.68;0.70;;;8.10;99.90;;;;;;5030664;28;20045;-60
2022/12/24 08:36:52;;;;;;;1.88;1.00;;;7.50;99.90;;;;;;5028924;28;20065;-60
2022/12/24 08:39:18;;;;;;;2.38;1.10;;;8.40;99.90;;;;;;5028766;28;20069;-60
2022/12/24 08:41:45;;;;;;;2.20;1.20;;;8.40;99.90;;;;;;5026971;28;20044;-60
2022/12/24 08:44:12;;;;;;;3.67;2.20;;;8.30;99.90;;;;;;5031209;28;20103;-60
2022/12/24 08:46:38;;;;;;;5.82;1.55;;;8.40;99.90;;;;;;5027163;28;20073;-60
2022/12/24 08:49:05;;;;;;;15.40;5.22;;;8.40;99.90;;;;;;5030234;28;20084;-60
2022/12/24 08:51:32;;;;;;;11.57;4.13;;;8.40;99.90;;;;;;5028242;28;20072;-60
2022/12/24 08:53:58;;;;;;;33.33;13.20;;;8.30;99.90;;;;;;5038176;28;20073;-60
2022/12/24 08:56:25;;;;;;;11.70;5.72;;;8.20;99.90;;;;;;5035255;28;20049;-60
2022/12/24 08:58:52;;;;;;;17.85;9.20;;;8.20;99.90;;;;;;5037979;28;20051;-59
2022/12/24 09:01:19;;;;;;;7.43;4.35;;;8.20;99.90;;;;;;5030660;28;20079;-59
2022/12/24 09:03:47;;;;;;;10.00;5.13;;;8.20;99.90;;;;;;5030135;28;20049;-59
2022/12/24 09:06:14;;;;;;;4.18;2.30;;;8.30;99.90;;;;;;5033995;28;20038;-60
2022/12/24 09:08:41;;;;;;;5.55;3.00;;;8.40;99.90;;;;;;5038238;28;20069;-60
2022/12/24 09:11:19;;;;;;;6.85;4.32;;;8.50;99.90;;;;;;5034770;28;20053;-60
2022/12/24 09:13:46;;;;;;;3.47;1.58;;;8.60;99.90;;;;;;5035633;28;20552;-60
2022/12/24 09:16:12;;;;;;;2.25;1.10;;;8.60;99.90;;;;;;5023906;28;20061;-60
2022/12/24 09:18:40;;;;;;;2.30;0.98;;;8.60;99.90;;;;;;5027328;28;20513;-60
2022/12/24 09:21:10;;;;;;;3.10;0.90;;;8.70;99.90;;;;;;5029371;28;20087;-59
2022/12/24 09:23:40;;;;;;;3.92;1.27;;;8.80;99.90;;;;;;5029339;28;20065;-60
2022/12/24 09:26:09;;;;;;;4.97;1.58;;;8.80;99.90;;;;;;5023542;28;20080;-60
2022/12/24 09:28:36;;;;;;;1.70;0.70;;;8.80;99.90;;;;;;5022245;28;20068;-60
2022/12/24 09:31:04;;;;;;;2.58;0.88;;;8.80;99.90;;;;;;5029573;28;20075;-60
2022/12/24 09:33:34;;;;;;;1.88;0.85;;;8.90;99.90;;;;;;5026927;28;20565;-60
2022/12/24 09:36:01;;;;;;;3.45;1.05;;;9.00;99.90;;;;;;5030040;28;20399;-60
2022/12/24 09:38:29;;;;;;;4.22;1.38;;;9.00;99.90;;;;;;5031110;28;20090;-60
2022/12/24 09:40:57;;;;;;;7.55;2.90;;;9.00;99.90;;;;;;5033408;28;20128;-60
2022/12/24 09:43:34;;;;;;;10.68;4.75;;;9.00;99.90;;;;;;5026674;28;20101;-60
2022/12/24 09:46:00;;;;;;;6.78;3.05;;;9.10;99.90;;;;;;5033425;28;20052;-60
2022/12/24 09:48:30;;;;;;;9.98;3.97;;;9.10;99.90;;;;;;5027063;28;20121;-60
2022/12/24 09:51:24;;;;;;;3.85;2.08;;;9.10;99.90;;;;;;5032867;28;20045;-60
2022/12/24 09:54:01;;;;;;;4.07;1.52;;;9.10;99.90;;;;;;5047721;28;20571;-60
2022/12/24 09:56:39;;;;;;;4.77;1.57;;;9.10;99.90;;;;;;5032829;28;20041;-60
2022/12/24 09:59:13;;;;;;;5.22;1.38;;;9.10;99.90;;;;;;5038031;28;20029;-59
2022/12/24 10:01:40;;;;;;;4.25;1.30;;;9.10;99.90;;;;;;5024023;28;20084;-60
2022/12/24 10:04:12;;;;;;;1.92;1.25;;;9.00;99.90;;;;;;5025919;28;20049;-60
2022/12/24 10:06:50;;;;;;;1.63;1.00;;;9.00;99.90;;;;;;5024740;28;20069;-60
2022/12/24 10:09:30;;;;;;;5.80;1.80;;;9.00;99.90;;;;;;5035194;28;20044;-60
2022/12/24 10:12:17;;;;;;;2.60;1.10;;;9.10;99.90;;;;;;5051367;28;20044;-60
2022/12/24 10:15:06;;;;;;;13.10;4.80;;;9.10;99.90;;;;;;5028790;28;20509;-60
2022/12/24 10:17:52;;;;;;;5.35;2.25;;;9.20;99.90;;;;;;5022027;28;20107;-60
2022/12/24 10:20:32;;;;;;;2.33;1.10;;;9.20;99.90;;;;;;5025214;28;20045;-60
2022/12/24 10:23:08;;;;;;;3.28;1.92;;;9.30;99.90;;;;;;5023684;28;20497;-60
2022/12/24 10:26:05;;;;;;;3.20;1.55;;;9.30;99.90;;;;;;5033151;28;20402;-60
2022/12/24 10:28:58;;;;;;;3.15;1.58;;;9.30;99.90;;;;;;5032067;28;20038;-60
2022/12/24 10:31:29;;;;;;;8.02;2.83;;;9.20;99.90;;;;;;5024600;28;20049;-59
2022/12/24 10:34:00;;;;;;;3.63;1.52;;;9.20;99.90;;;;;;5032025;28;20045;-60
2022/12/24 10:36:29;;;;;;;3.72;1.60;;;9.20;99.90;;;;;;5037313;28;20069;-60
2022/12/24 10:38:56;;;;;;;6.80;5.15;;;9.20;99.90;;;;;;5031364;28;20064;-60
2022/12/24 10:41:25;;;;;;;9.85;6.30;;;9.20;99.90;;;;;;5031623;28;20547;-60
2022/12/24 10:43:52;;;;;;;6.18;4.47;;;9.20;99.90;;;;;;5032515;28;20119;-60
2022/12/24 10:46:31;;;;;;;4.35;2.30;;;9.40;99.90;;;;;;5031394;28;20091;-60
2022/12/24 10:49:02;;;;;;;5.45;3.20;;;9.20;99.90;;;;;;5031423;28;20068;-60
2022/12/24 10:51:42;;;;;;;2.78;1.20;;;9.10;99.90;;;;;;5031309;28;20452;-60
2022/12/24 10:54:15;;;;;;;2.65;1.73;;;9.10;99.90;;;;;;5032442;28;20085;-60
2022/12/24 10:57:00;;;;;;;2.30;1.42;;;9.00;99.90;;;;;;5029296;28;20060;-60
2022/12/24 10:59:39;;;;;;;1.05;0.70;;;9.00;99.90;;;;;;5032295;28;20081;-60
2022/12/24 11:02:29;;;;;;;2.47;1.25;;;9.00;99.90;;;;;;5030254;28;20438;-60
2022/12/24 11:04:58;;;;;;;3.13;1.58;;;9.00;99.90;;;;;;5030994;28;20116;-60
2022/12/24 11:07:26;;;;;;;1.30;0.57;;;8.90;99.90;;;;;;5030501;28;20049;-60
2022/12/24 11:10:02;;;;;;;4.78;1.40;;;8.90;99.90;;;;;;5031121;28;20053;-60
2022/12/24 11:12:36;;;;;;;4.63;2.50;;;8.90;99.90;;;;;;5031772;28;20490;-60
2022/12/24 11:15:05;;;;;;;2.30;1.65;;;8.90;99.90;;;;;;5024730;28;20093;-60
2022/12/24 11:17:33;;;;;;;5.63;4.22;;;8.90;99.90;;;;;;5031138;28;20068;-59
2022/12/24 11:20:02;;;;;;;3.03;0.90;;;8.90;99.90;;;;;;5030547;28;20045;-60
2022/12/24 11:22:31;;;;;;;8.45;6.10;;;8.80;99.90;;;;;;5037125;28;20049;-60
2022/12/24 11:25:04;;;;;;;1.58;0.90;;;8.80;99.90;;;;;;5032844;28;20098;-59
2022/12/24 11:27:38;;;;;;;2.15;1.60;;;8.80;99.90;;;;;;5039972;28;20041;-60
2022/12/24 11:30:26;;;;;;;1.98;0.98;;;8.90;99.90;;;;;;5031813;28;20029;-60
2022/12/24 11:32:59;;;;;;;1.85;1.50;;;8.90;99.90;;;;;;5034829;28;20065;-60
2022/12/24 11:35:27;;;;;;;2.25;1.58;;;8.90;99.90;;;;;;5036911;28;20044;-60
2022/12/24 11:38:00;;;;;;;2.90;1.55;;;8.90;99.90;;;;;;5031289;28;20444;-60
2022/12/24 11:40:33;;;;;;;2.28;1.15;;;8.80;99.90;;;;;;5029099;28;21386;-60
2022/12/24 11:43:02;;;;;;;2.67;1.63;;;8.90;99.90;;;;;;5035398;28;20413;-60
2022/12/24 11:45:31;;;;;;;1.77;1.10;;;9.00;99.90;;;;;;5039500;28;20045;-60
2022/12/24 11:47:59;;;;;;;3.90;1.15;;;9.00;99.90;;;;;;5029172;28;20119;-60
2022/12/24 11:50:25;;;;;;;2.08;0.60;;;8.90;99.90;;;;;;5032191;28;20041;-60
2022/12/24 11:53:01;;;;;;;1.65;1.05;;;9.00;99.90;;;;;;5033704;28;20102;-60
2022/12/24 11:55:28;;;;;;;1.67;1.00;;;9.00;99.90;;;;;;5040048;28;20477;-60
2022/12/24 11:58:17;;;;;;;5.90;2.60;;;9.10;99.90;;;;;;5036802;28;20048;-60
2022/12/24 12:00:45;;;;;;;4.07;2.00;;;9.10;99.90;;;;;;5037705;28;20080;-60
2022/12/24 12:03:41;;;;;;;1.83;1.60;;;9.10;99.90;;;;;;5032483;28;20107;-60
2022/12/24 12:06:26;;;;;;;1.00;0.82;;;9.10;99.90;;;;;;5031647;28;20049;-60
2022/12/24 12:08:58;;;;;;;2.63;1.20;;;9.20;99.90;;;;;;5032517;28;20045;-60
2022/12/24 12:11:27;;;;;;;5.15;2.25;;;9.20;99.90;;;;;;5036795;28;20071;-60
2022/12/24 12:13:58;;;;;;;9.77;1.90;;;9.30;99.90;;;;;;5031862;28;20111;-60
2022/12/24 12:16:59;;;;;;;4.50;2.17;;;9.30;99.90;;;;;;5033921;28;20053;-60
2022/12/24 12:19:24;;;;;;;1.35;0.50;;;9.40;99.90;;;;;;5036342;28;20149;-60
2022/12/24 12:21:51;;;;;;;3.60;1.20;;;9.40;99.90;;;;;;5026906;28;20041;-60
2022/12/24 12:24:33;;;;;;;2.17;1.00;;;9.40;99.90;;;;;;5027595;28;20041;-60
2022/12/24 12:27:18;;;;;;;3.70;1.70;;;9.50;99.90;;;;;;5022807;28;20490;-60
2022/12/24 12:29:53;;;;;;;3.63;1.95;;;9.60;99.90;;;;;;5025885;28;20728;-60
2022/12/24 12:32:45;;;;;;;3.88;1.85;;;9.70;99.90;;;;;;5023042;28;20080;-60
2022/12/24 12:35:15;;;;;;;7.57;2.15;;;9.90;99.90;;;;;;5019214;28;20494;-60
2022/12/24 12:37:47;;;;;;;7.05;3.55;;;9.90;99.90;;;;;;5022509;28;20068;-60
2022/12/24 12:40:16;;;;;;;1.73;1.00;;;9.90;99.90;;;;;;5026034;28;20096;-60
2022/12/24 12:42:58;;;;;;;3.45;1.50;;;10.00;99.90;;;;;;5036218;28;20548;-60
2022/12/24 12:45:31;;;;;;;1.60;0.70;;;10.00;99.90;;;;;;5036107;28;20091;-60
2022/12/24 12:48:27;;;;;;;1.58;0.90;;;9.90;99.90;;;;;;5030511;28;20490;-60
2022/12/24 12:51:35;;;;;;;2.30;0.80;;;10.00;99.90;;;;;;5029973;28;20045;-60
2022/12/24 12:54:41;;;;;;;3.28;1.40;;;10.00;99.90;;;;;;5030892;28;20044;-60
2022/12/24 12:57:13;;;;;;;3.65;0.90;;;10.10;99.90;;;;;;5028496;28;20033;-60
2022/12/24 12:59:47;;;;;;;1.75;0.75;;;10.10;99.90;;;;;;5030238;28;20490;-60
2022/12/24 13:02:42;;;;;;;2.28;1.35;;;10.20;99.90;;;;;;5029294;28;20111;-60
2022/12/24 13:05:46;;;;;;;2.42;0.80;;;10.20;99.90;;;;;;5037719;28;20045;-60
2022/12/24 13:08:39;;;;;;;2.45;1.40;;;10.10;99.90;;;;;;5029900;28;20041;-60
2022/12/24 13:11:08;;;;;;;3.15;2.08;;;10.10;99.90;;;;;;5031958;28;20041;-60
2022/12/24 13:13:47;;;;;;;2.00;1.25;;;10.10;99.90;;;;;;5042477;28;20489;-59
2022/12/24 13:16:36;;;;;;;1.80;1.10;;;10.10;99.90;;;;;;5033792;28;20498;-60
2022/12/24 13:19:02;;;;;;;4.47;1.88;;;10.00;99.90;;;;;;5034089;28;20525;-59
2022/12/24 13:21:30;;;;;;;1.77;1.30;;;10.10;99.90;;;;;;5033077;28;20037;-60
2022/12/24 13:24:20;;;;;;;3.42;1.83;;;10.00;99.90;;;;;;5027018;28;20092;-60
2022/12/24 13:27:05;;;;;;;4.00;1.92;;;10.00;99.90;;;;;;5029884;28;20287;-60